createdAt,value
2019-02-07T00:00:48.887Z,65.03
2019-02-07T00:03:17.993Z,58.87
2019-02-07T00:05:46.989Z,63.80
2019-02-07T00:08:15.964Z,55.10
2019-02-07T00:10:44.857Z,65.17
2019-02-07T00:13:13.823Z,60.67
2019-02-07T00:15:43.072Z,59.23
2019-02-07T00:18:12.077Z,63.23
2019-02-07T00:20:41.265Z,58.17
2019-02-07T00:23:10.343Z,60.17
2019-02-07T00:25:39.383Z,62.35
2019-02-07T00:28:08.419Z,63.70
2019-02-07T00:30:38.668Z,70.05
2019-02-07T00:33:07.684Z,57.35
2019-02-07T00:35:36.715Z,66.70
2019-02-07T00:38:05.774Z,65.78
2019-02-07T00:40:34.865Z,62.67
2019-02-07T00:43:04.222Z,59.38
2019-02-07T00:45:33.200Z,55.83
2019-02-07T00:48:02.189Z,67.67
2019-02-07T00:50:31.300Z,60.88
2019-02-07T00:53:00.385Z,69.20
2019-02-07T00:55:29.713Z,60.67
2019-02-07T00:57:59.565Z,58.17
2019-02-07T01:00:28.813Z,62.80
2019-02-07T01:02:57.923Z,60.60
2019-02-07T01:05:27.006Z,65.65
2019-02-07T01:07:55.974Z,64.10
2019-02-07T01:10:25.542Z,65.10
2019-02-07T01:12:54.546Z,63.87
2019-02-07T01:15:23.809Z,62.30
2019-02-07T01:17:52.812Z,58.15
2019-02-07T01:20:21.824Z,59.58
2019-02-07T01:22:50.792Z,62.80
2019-02-07T01:25:20.728Z,66.33
2019-02-07T01:27:49.982Z,62.75
2019-02-07T01:30:20.537Z,59.13
2019-02-07T01:32:49.529Z,58.60
2019-02-07T01:35:18.615Z,57.25
2019-02-07T01:37:49.812Z,59.55
2019-02-07T01:40:20.127Z,59.63
2019-02-07T01:42:49.093Z,61.77
2019-02-07T01:45:19.784Z,58.85
2019-02-07T01:47:48.933Z,57.03
2019-02-07T01:50:19.512Z,59.58
2019-02-07T01:52:49.036Z,62.13
2019-02-07T01:55:18.013Z,58.40
2019-02-07T01:57:47.024Z,68.45
2019-02-07T02:00:17.237Z,53.52
2019-02-07T02:02:46.247Z,58.73
2019-02-07T02:05:16.481Z,61.48
2019-02-07T02:07:45.840Z,79.82
2019-02-07T02:10:22.052Z,70.83
2019-02-07T02:12:51.080Z,57.93
2019-02-07T02:15:24.631Z,59.38
2019-02-07T02:17:52.188Z,64.47
2019-02-07T02:20:22.296Z,56.18
2019-02-07T02:22:53.407Z,59.98
2019-02-07T02:25:22.629Z,63.78
2019-02-07T02:27:51.777Z,60.05
2019-02-07T02:30:27.305Z,51.02
2019-02-07T02:32:56.358Z,58.78
2019-02-07T02:35:25.245Z,56.95
2019-02-07T02:37:54.289Z,54.23
2019-02-07T02:40:23.256Z,60.65
2019-02-07T02:42:52.244Z,55.52
2019-02-07T02:45:21.275Z,54.15
2019-02-07T02:47:50.452Z,53.15
2019-02-07T02:50:19.736Z,55.28
2019-02-07T02:52:48.858Z,56.55
2019-02-07T02:55:29.098Z,62.70
2019-02-07T02:57:58.336Z,58.83
2019-02-07T03:00:36.558Z,62.40
2019-02-07T03:03:37.420Z,57.30
2019-02-07T03:06:14.545Z,50.63
2019-02-07T03:09:08.434Z,51.02
2019-02-07T03:11:55.058Z,56.73
2019-02-07T03:14:47.702Z,56.70
2019-02-07T03:17:54.845Z,39.83
2019-02-07T03:21:02.025Z,38.02
2019-02-07T03:24:09.220Z,50.88
2019-02-07T03:27:16.350Z,53.25
2019-02-07T03:33:38.523Z,53.55
2019-02-07T03:36:45.659Z,61.25
2019-02-07T03:39:46.191Z,59.10
2019-02-07T03:42:33.134Z,58.90
2019-02-07T03:45:13.433Z,57.90
2019-02-07T03:48:00.813Z,58.92
2019-02-07T03:50:53.214Z,63.23
2019-02-07T03:53:44.086Z,55.38
2019-02-07T03:56:26.734Z,60.73
2019-02-07T03:59:14.670Z,59.83
2019-02-07T04:02:05.733Z,63.48
2019-02-07T04:04:53.736Z,67.22
2019-02-07T04:07:35.913Z,62.25
2019-02-07T04:10:25.176Z,65.10
2019-02-07T04:13:05.089Z,59.05
2019-02-07T04:15:53.057Z,57.83
2019-02-07T04:18:59.589Z,61.35
2019-02-07T04:21:47.637Z,64.87
2019-02-07T04:24:38.616Z,62.17
2019-02-07T04:27:41.709Z,56.30
2019-02-07T04:30:28.357Z,56.37
2019-02-07T04:33:07.634Z,54.98
2019-02-07T04:35:51.316Z,56.20
2019-02-07T04:38:43.599Z,62.80
2019-02-07T04:41:40.684Z,55.10
2019-02-07T04:44:27.530Z,54.38
2019-02-07T04:47:14.649Z,52.80
2019-02-07T04:49:54.316Z,50.92
2019-02-07T04:52:40.902Z,56.80
2019-02-07T04:55:31.958Z,56.13
2019-02-07T04:58:19.018Z,58.33
2019-02-07T05:01:13.409Z,57.15
2019-02-07T05:04:10.187Z,59.85
2019-02-07T05:07:01.247Z,61.25
2019-02-07T05:09:49.135Z,59.33
2019-02-07T05:12:36.140Z,57.45
2019-02-07T05:15:26.162Z,58.83
2019-02-07T05:18:08.581Z,54.40
2019-02-07T05:20:57.004Z,58.50
2019-02-07T05:23:36.669Z,56.42
2019-02-07T05:26:23.011Z,57.67
2019-02-07T05:29:18.830Z,61.92
2019-02-07T05:32:06.781Z,49.73
2019-02-07T05:34:53.788Z,51.88
2019-02-07T05:37:54.204Z,54.08
2019-02-07T05:40:37.680Z,57.78
2019-02-07T05:43:28.550Z,55.90
2019-02-07T05:46:05.715Z,58.42
2019-02-07T05:49:09.180Z,49.90
2019-02-07T05:52:01.938Z,50.45
2019-02-07T05:54:55.757Z,55.35
2019-02-07T05:57:52.957Z,59.53
2019-02-07T06:00:39.060Z,56.92
2019-02-07T06:03:23.560Z,55.65
2019-02-07T06:06:11.687Z,58.92
2019-02-07T06:08:52.633Z,50.12
2019-02-07T06:11:46.973Z,52.10
2019-02-07T06:14:33.685Z,51.20
2019-02-07T06:17:28.054Z,53.48
2019-02-07T06:20:14.881Z,58.73
2019-02-07T06:23:03.140Z,50.67
2019-02-07T06:25:45.161Z,56.90
2019-02-07T06:28:33.565Z,56.88
2019-02-07T06:31:12.832Z,52.27
2019-02-07T06:33:59.425Z,50.45
2019-02-07T06:36:53.668Z,51.60
2019-02-07T06:39:41.093Z,50.45
2019-02-07T06:42:41.385Z,51.25
2019-02-07T06:45:25.856Z,54.27
2019-02-07T06:48:29.435Z,53.30
2019-02-07T06:51:16.329Z,55.73
2019-02-07T06:54:03.070Z,56.15
2019-02-07T06:56:49.976Z,62.62
2019-02-07T06:59:30.112Z,54.25
2019-02-07T07:02:17.011Z,57.48
2019-02-07T07:05:11.222Z,45.67
2019-02-07T07:08:02.092Z,54.63
2019-02-07T07:10:49.058Z,53.65
2019-02-07T07:13:34.242Z,53.10
2019-02-07T07:16:31.047Z,57.15
2019-02-07T07:19:07.912Z,51.23
2019-02-07T07:21:55.937Z,51.58
2019-02-07T07:24:56.904Z,50.80
2019-02-07T07:27:44.949Z,49.40
2019-02-07T07:30:42.951Z,56.60
2019-02-07T07:33:30.058Z,53.92
2019-02-07T07:36:17.128Z,61.88
2019-02-07T07:39:04.079Z,48.90
2019-02-07T07:41:52.151Z,43.78
2019-02-07T07:44:40.079Z,37.13
2019-02-07T07:47:36.084Z,34.73
2019-02-07T07:50:36.451Z,34.70
2019-02-07T07:53:27.268Z,37.93
2019-02-07T07:56:10.460Z,46.45
2019-02-07T07:59:13.657Z,46.98
2019-02-07T08:02:07.416Z,50.90
2019-02-07T08:04:54.426Z,49.20
2019-02-07T08:07:42.668Z,44.18
2019-02-07T08:10:31.756Z,45.25
2019-02-07T08:13:22.568Z,45.70
2019-02-07T08:16:10.958Z,48.60
2019-02-07T08:18:57.618Z,48.23
2019-02-07T08:21:57.937Z,54.75
2019-02-07T08:24:34.286Z,47.90
2019-02-07T08:27:21.186Z,42.35
2019-02-07T08:30:21.485Z,50.10
2019-02-07T08:33:04.667Z,49.93
2019-02-07T08:36:07.819Z,35.85
2019-02-07T08:38:50.004Z,41.20
2019-02-07T08:41:38.184Z,44.50
2019-02-07T08:44:29.021Z,35.33
2019-02-07T08:47:20.082Z,41.83
2019-02-07T08:49:58.661Z,45.58
2019-02-07T08:52:46.222Z,51.50
2019-02-07T08:55:40.544Z,36.50
2019-02-07T08:58:27.565Z,59.00
2019-02-07T09:01:14.421Z,242.18
2019-02-07T09:04:14.771Z,45.33
2019-02-07T09:07:08.987Z,47.35
2019-02-07T09:09:57.044Z,45.83
2019-02-07T09:12:57.838Z,46.00
2019-02-07T09:15:46.074Z,44.00
2019-02-07T09:18:49.146Z,42.50
2019-02-07T09:21:43.081Z,55.65
2019-02-07T09:24:33.876Z,240.40
2019-02-07T09:27:30.757Z,83.67
2019-02-07T09:30:27.832Z,50.65
2019-02-07T09:33:21.885Z,47.30
2019-02-07T09:36:15.754Z,51.63
2019-02-07T09:39:09.919Z,55.65
2019-02-07T09:41:56.580Z,52.73
2019-02-07T09:45:03.082Z,50.33
2019-02-07T09:48:02.940Z,51.90
2019-02-07T09:50:47.767Z,50.23
2019-02-07T09:53:30.200Z,55.77
2019-02-07T09:56:06.665Z,44.93
2019-02-07T09:58:47.844Z,53.27
2019-02-07T10:01:38.778Z,56.53
2019-02-07T10:04:26.006Z,65.40
2019-02-07T10:07:14.856Z,84.27
2019-02-07T10:09:55.598Z,44.93
2019-02-07T10:12:58.913Z,48.80
2019-02-07T10:15:53.080Z,51.10
2019-02-07T10:18:37.206Z,51.27
2019-02-07T10:21:24.075Z,48.13
2019-02-07T10:24:15.111Z,50.37
2019-02-07T10:27:05.475Z,56.60
2019-02-07T10:29:43.552Z,56.60
2019-02-07T10:32:40.925Z,49.50
2019-02-07T10:35:28.132Z,47.93
2019-02-07T10:38:16.114Z,48.90
2019-02-07T10:41:06.935Z,47.77
2019-02-07T10:44:01.105Z,46.80
2019-02-07T10:46:49.513Z,46.20
2019-02-07T10:49:40.593Z,45.83
2019-02-07T10:52:31.415Z,50.57
2019-02-07T10:55:19.519Z,49.27
2019-02-07T10:58:13.821Z,53.10
2019-02-07T11:01:00.509Z,50.33
2019-02-07T11:03:57.747Z,52.10
2019-02-07T11:06:52.721Z,49.13
2019-02-07T11:09:40.545Z,52.80
2019-02-07T11:12:40.983Z,56.23
2019-02-07T11:15:47.822Z,54.30
2019-02-07T11:18:35.897Z,54.73
2019-02-07T11:21:22.533Z,55.90
2019-02-07T11:24:09.479Z,49.60
2019-02-07T11:27:15.025Z,51.63
2019-02-07T11:30:11.593Z,56.00
2019-02-07T11:32:58.722Z,56.50
2019-02-07T11:35:47.253Z,58.78
2019-02-07T11:38:35.365Z,51.90
2019-02-07T11:41:23.005Z,52.00
2019-02-07T11:44:20.392Z,58.90
2019-02-07T11:47:09.072Z,58.10
2019-02-07T11:50:06.393Z,52.73
2019-02-07T11:52:50.491Z,47.47
2019-02-07T11:55:44.756Z,47.17
2019-02-07T11:58:45.061Z,48.97
2019-02-07T12:01:35.018Z,50.03
2019-02-07T12:04:35.105Z,48.03
2019-02-07T12:07:35.213Z,43.63
2019-02-07T12:10:33.604Z,46.33
2019-02-07T12:13:14.428Z,37.57
2019-02-07T12:15:56.592Z,41.17
2019-02-07T12:18:43.336Z,35.50
2019-02-07T12:21:31.336Z,34.40
2019-02-07T12:24:18.888Z,39.13
2019-02-07T12:27:05.985Z,42.60
2019-02-07T12:29:49.807Z,55.13
2019-02-07T12:32:26.542Z,55.00
2019-02-07T12:35:17.313Z,48.90
2019-02-07T12:38:21.029Z,60.40
2019-02-07T12:41:07.794Z,55.73
2019-02-07T12:44:04.673Z,58.30
2019-02-07T12:46:51.747Z,77.43
2019-02-07T12:49:56.108Z,61.03
2019-02-07T12:52:43.401Z,80.93
2019-02-07T12:55:52.008Z,70.00
2019-02-07T12:58:30.695Z,56.20
2019-02-07T13:01:17.525Z,56.67
2019-02-07T13:04:05.748Z,63.13
2019-02-07T13:07:02.480Z,59.83
2019-02-07T13:09:56.584Z,52.93
2019-02-07T13:13:02.902Z,52.77
2019-02-07T13:15:57.214Z,56.50
2019-02-07T13:18:35.053Z,52.63
2019-02-07T13:21:29.208Z,55.10
2019-02-07T13:24:20.401Z,64.10
2019-02-07T13:27:26.873Z,57.40
2019-02-07T13:30:33.552Z,52.63
2019-02-07T13:33:30.841Z,56.47
2019-02-07T13:36:25.686Z,49.93
2019-02-07T13:39:19.548Z,33.80
2019-02-07T13:42:06.968Z,88.33
2019-02-07T13:44:43.789Z,54.63
2019-02-07T13:47:34.609Z,60.13
2019-02-07T13:50:23.136Z,54.43
2019-02-07T13:53:14.026Z,56.47
2019-02-07T13:56:01.501Z,64.93
2019-02-07T13:58:40.655Z,53.03
2019-02-07T14:01:47.228Z,58.93
2019-02-07T14:04:35.341Z,51.87
2019-02-07T14:07:26.370Z,53.97
2019-02-07T14:10:14.357Z,55.90
2019-02-07T14:12:55.572Z,52.27
2019-02-07T14:15:42.461Z,42.80
2019-02-07T14:18:20.202Z,40.30
2019-02-07T14:21:07.089Z,44.27
2019-02-07T14:24:01.244Z,28.27
2019-02-07T14:26:42.263Z,29.30
2019-02-07T14:29:31.069Z,25.90
2019-02-07T14:32:28.052Z,25.77
2019-02-07T14:35:25.279Z,24.50
2019-02-07T14:38:16.417Z,30.87
2019-02-07T14:41:10.304Z,27.90
2019-02-07T14:43:52.677Z,24.83
2019-02-07T14:46:47.720Z,26.50
2019-02-07T14:49:16.936Z,27.67
2019-02-07T14:51:45.986Z,24.20
2019-02-07T14:54:15.355Z,31.20
2019-02-07T14:56:44.303Z,27.70
2019-02-07T14:59:13.409Z,27.33
2019-02-07T15:01:42.473Z,32.40
2019-02-07T15:04:11.509Z,27.30
2019-02-07T15:06:40.496Z,28.07
2019-02-07T15:09:15.670Z,26.00
2019-02-07T15:11:44.952Z,27.50
2019-02-07T15:14:13.980Z,32.40
2019-02-07T15:16:43.273Z,27.10
2019-02-07T15:19:12.225Z,27.83
2019-02-07T15:21:41.232Z,27.10
2019-02-07T15:24:10.537Z,24.17
2019-02-07T15:26:39.588Z,26.87
2019-02-07T15:29:08.712Z,27.80
2019-02-07T15:31:37.802Z,24.43
2019-02-07T15:34:09.114Z,24.70
2019-02-07T15:36:39.505Z,25.13
2019-02-07T15:39:12.702Z,26.13
2019-02-07T15:41:41.672Z,27.10
2019-02-07T15:44:10.748Z,25.70
2019-02-07T15:46:39.894Z,26.17
2019-02-07T15:49:09.083Z,25.53
2019-02-07T15:51:38.146Z,25.17
2019-02-07T15:54:07.569Z,24.90
2019-02-07T15:56:36.525Z,26.07
2019-02-07T15:59:23.462Z,44.13
2019-02-07T16:02:10.388Z,50.20
2019-02-07T16:04:42.213Z,61.07
2019-02-07T16:07:11.195Z,54.17
2019-02-07T16:09:40.213Z,65.93
2019-02-07T16:12:09.247Z,51.13
2019-02-07T16:14:38.389Z,57.70
2019-02-07T16:17:07.520Z,47.10
2019-02-07T16:19:36.797Z,35.47
2019-02-07T16:22:05.999Z,35.77
2019-02-07T16:24:35.041Z,28.23
2019-02-07T16:27:06.908Z,27.40
2019-02-07T16:29:36.269Z,27.40
2019-02-07T16:32:05.248Z,26.57
2019-02-07T16:34:34.591Z,25.20
2019-02-07T16:37:03.675Z,28.43
2019-02-07T16:39:34.285Z,28.73
2019-02-07T16:42:06.355Z,26.57
2019-02-07T16:44:34.010Z,26.20
2019-02-07T16:47:03.071Z,30.87
2019-02-07T16:49:32.190Z,29.00
2019-02-07T16:52:01.237Z,28.00
2019-02-07T16:54:30.408Z,25.93
2019-02-07T16:56:59.558Z,26.30
2019-02-07T16:59:28.990Z,26.83
2019-02-07T17:01:58.076Z,26.33
2019-02-07T17:04:27.073Z,27.73
2019-02-07T17:06:56.151Z,24.73
2019-02-07T17:09:32.158Z,25.67
2019-02-07T17:12:01.284Z,30.10
2019-02-07T17:14:30.835Z,27.10
2019-02-07T17:16:59.934Z,26.63
2019-02-07T17:19:28.906Z,27.80
2019-02-07T17:21:58.072Z,25.27
2019-02-07T17:24:27.083Z,25.83
2019-02-07T17:26:56.238Z,25.37
2019-02-07T17:29:25.629Z,25.70
2019-02-07T17:31:54.824Z,24.77
2019-02-07T17:34:23.996Z,25.67
2019-02-07T17:36:53.132Z,24.60
2019-02-07T17:39:22.240Z,26.90
2019-02-07T17:41:51.273Z,25.93
2019-02-07T17:44:20.629Z,23.80
2019-02-07T17:46:49.652Z,26.13
2019-02-07T17:49:18.681Z,24.10
2019-02-07T17:51:47.679Z,25.60
2019-02-07T17:54:18.976Z,25.37
2019-02-07T17:56:47.429Z,25.20
2019-02-07T17:59:16.890Z,24.20
2019-02-07T18:01:45.932Z,26.80
2019-02-07T18:04:15.136Z,24.17
2019-02-07T18:06:44.285Z,25.07
2019-02-07T18:09:13.354Z,26.23
2019-02-07T18:11:42.459Z,25.77
2019-02-07T18:14:11.526Z,29.53
2019-02-07T18:16:40.506Z,26.53
2019-02-07T18:19:09.576Z,27.30
2019-02-07T18:21:38.676Z,24.87
2019-02-07T18:24:07.790Z,28.40
2019-02-07T18:26:36.793Z,25.83
2019-02-07T18:29:05.855Z,24.20
2019-02-07T18:31:35.386Z,30.20
2019-02-07T18:34:04.615Z,29.13
2019-02-07T18:36:33.886Z,30.00
2019-02-07T18:39:03.326Z,34.97
2019-02-07T18:41:32.434Z,36.30
2019-02-07T18:44:01.553Z,31.23
2019-02-07T18:46:31.044Z,32.27
2019-02-07T18:49:01.234Z,31.60
2019-02-07T18:51:30.438Z,31.30
2019-02-07T18:53:59.973Z,30.83
2019-02-07T18:56:30.386Z,30.90
2019-02-07T18:58:59.475Z,30.80
2019-02-07T19:01:28.788Z,31.77
2019-02-07T19:03:57.865Z,29.10
2019-02-07T19:06:26.949Z,31.50
2019-02-07T19:08:56.007Z,32.00
2019-02-07T19:11:25.065Z,31.90
2019-02-07T19:13:54.044Z,29.60
2019-02-07T19:16:24.858Z,30.50
2019-02-07T19:18:53.776Z,35.90
2019-02-07T19:21:22.971Z,34.90
2019-02-07T19:23:52.073Z,31.60
2019-02-07T19:26:21.185Z,30.37
2019-02-07T19:28:51.248Z,31.13
2019-02-07T19:31:20.447Z,30.43
2019-02-07T19:33:49.622Z,29.77
2019-02-07T19:36:18.695Z,30.17
2019-02-07T19:38:47.838Z,33.43
2019-02-07T19:41:16.848Z,31.10
2019-02-07T19:43:45.934Z,30.47
2019-02-07T19:46:15.043Z,30.67
2019-02-07T19:48:44.542Z,30.97
2019-02-07T19:51:14.660Z,29.57
2019-02-07T19:53:43.747Z,30.17
2019-02-07T19:56:12.808Z,29.67
2019-02-07T19:58:41.985Z,33.83
2019-02-07T20:01:10.973Z,33.73
2019-02-07T20:03:40.458Z,28.63
2019-02-07T20:06:09.545Z,27.33
2019-02-07T20:08:38.663Z,28.73
2019-02-07T20:11:07.843Z,28.13
2019-02-07T20:13:36.960Z,27.50
2019-02-07T20:16:06.037Z,26.20
2019-02-07T20:18:35.102Z,26.53
2019-02-07T20:21:04.532Z,25.20
2019-02-07T20:23:33.709Z,27.40
2019-02-07T20:26:03.058Z,27.33
2019-02-07T20:28:32.300Z,24.33
2019-02-07T20:31:01.496Z,24.33
2019-02-07T20:33:30.481Z,29.30
2019-02-07T20:35:59.617Z,26.17
2019-02-07T20:38:29.138Z,28.13
2019-02-07T20:40:58.200Z,25.50
2019-02-07T20:43:27.296Z,25.93
2019-02-07T20:45:56.370Z,27.20
2019-02-07T20:48:25.492Z,27.00
2019-02-07T20:50:54.597Z,26.70
2019-02-07T20:53:23.730Z,27.33
2019-02-07T20:55:52.788Z,27.33
2019-02-07T20:58:21.971Z,29.80
2019-02-07T21:00:50.953Z,28.40
2019-02-07T21:03:19.985Z,28.97
2019-02-07T21:05:48.985Z,25.00
2019-02-07T21:08:18.117Z,26.60
2019-02-07T21:10:47.577Z,29.90
2019-02-07T21:13:16.834Z,29.20
2019-02-07T21:15:46.035Z,27.40
2019-02-07T21:18:15.028Z,25.77
2019-02-07T21:20:44.025Z,31.90
2019-02-07T21:23:13.214Z,28.70
2019-02-07T21:25:47.681Z,27.40
2019-02-07T21:28:16.771Z,34.10
2019-02-07T21:30:45.932Z,26.30
2019-02-07T21:33:15.072Z,29.67
2019-02-07T21:35:44.137Z,26.63
2019-02-07T21:38:15.985Z,25.47
2019-02-07T21:40:45.173Z,25.30
2019-02-07T21:43:14.622Z,27.03
2019-02-07T21:45:43.696Z,26.87
2019-02-07T21:48:12.858Z,29.33
2019-02-07T21:50:41.853Z,26.60
2019-02-07T21:53:10.960Z,29.13
2019-02-07T21:55:40.114Z,27.23
2019-02-07T21:58:09.453Z,27.80
2019-02-07T22:00:41.380Z,28.10
2019-02-07T22:03:12.580Z,26.90
2019-02-07T22:05:41.585Z,31.50
2019-02-07T22:08:10.980Z,30.30
2019-02-07T22:10:40.028Z,29.73
2019-02-07T22:13:09.509Z,24.37
2019-02-07T22:15:38.565Z,26.77
2019-02-07T22:18:09.266Z,25.50
2019-02-07T22:20:38.426Z,30.37
2019-02-07T22:23:07.457Z,26.60
2019-02-07T22:25:36.436Z,29.40
2019-02-07T22:28:05.950Z,27.90
2019-02-07T22:30:35.175Z,29.70
2019-02-07T22:33:04.269Z,31.37
2019-02-07T22:35:33.243Z,32.03
2019-02-07T22:38:02.452Z,29.97
2019-02-07T22:40:31.512Z,28.80
2019-02-07T22:43:01.164Z,27.60
2019-02-07T22:45:30.236Z,29.90
2019-02-07T22:47:59.313Z,30.47
2019-02-07T22:50:29.312Z,32.00
2019-02-07T22:52:58.733Z,25.73
2019-02-07T22:55:27.701Z,28.20
2019-02-07T22:57:56.632Z,34.63
2019-02-07T23:01:06.985Z,30.17
2019-02-07T23:03:36.367Z,30.87
2019-02-07T23:06:05.800Z,28.40
2019-02-07T23:08:34.949Z,25.90
2019-02-07T23:11:03.926Z,29.43
2019-02-07T23:13:32.948Z,28.10
2019-02-07T23:16:01.930Z,29.43
2019-02-07T23:18:30.929Z,29.47
2019-02-07T23:21:00.002Z,29.30
2019-02-07T23:23:28.980Z,25.57
2019-02-07T23:25:58.112Z,30.23
2019-02-07T23:28:27.038Z,26.70
2019-02-07T23:30:56.026Z,29.53
2019-02-07T23:33:25.055Z,27.37
2019-02-07T23:35:54.085Z,27.73
2019-02-07T23:38:23.349Z,25.63
2019-02-07T23:40:52.500Z,27.00
2019-02-07T23:43:21.636Z,25.60
2019-02-07T23:45:50.912Z,32.47
2019-02-07T23:48:20.039Z,27.40
2019-02-07T23:50:49.032Z,29.07
2019-02-07T23:53:19.783Z,28.13
2019-02-07T23:55:48.860Z,24.60
2019-02-07T23:58:17.911Z,26.83
